createdAt,value
2019-05-01T00:00:47.626Z,100675.92
2019-05-01T00:03:20.635Z,100662.70
2019-05-01T00:05:54.220Z,100667.27
2019-05-01T00:08:26.546Z,100661.58
2019-05-01T00:10:58.492Z,100658.61
2019-05-01T00:13:32.786Z,100663.20
2019-05-01T00:16:04.136Z,100653.65
2019-05-01T00:18:35.674Z,100660.92
2019-05-01T00:21:07.305Z,100662.23
2019-05-01T00:23:38.873Z,100661.34
2019-05-01T00:26:10.908Z,100657.95
2019-05-01T00:28:42.568Z,100642.63
2019-05-01T00:31:13.926Z,100643.19
2019-05-01T00:33:45.810Z,100644.48
2019-05-01T00:36:17.368Z,100643.47
2019-05-01T00:38:48.678Z,100640.25
2019-05-01T00:41:19.635Z,100645.94
2019-05-01T00:43:51.146Z,100642.26
2019-05-01T00:46:22.535Z,100641.70
2019-05-01T00:48:54.165Z,100648.48
2019-05-01T00:51:25.668Z,100642.98
2019-05-01T00:53:57.224Z,100636.47
2019-05-01T00:56:29.991Z,100635.77
2019-05-01T00:59:03.080Z,100635.37
2019-05-01T01:01:34.309Z,100637.32
2019-05-01T01:04:06.131Z,100634.66
2019-05-01T01:06:38.283Z,100635.55
2019-05-01T01:09:10.494Z,100633.83
2019-05-01T01:11:41.869Z,100628.56
2019-05-01T01:14:13.012Z,100629.12
2019-05-01T01:16:44.559Z,100625.96
2019-05-01T01:19:15.858Z,100624.93
2019-05-01T01:21:47.731Z,100629.91
2019-05-01T01:24:18.930Z,100622.21
2019-05-01T01:26:50.095Z,100625.67
2019-05-01T01:29:21.388Z,100616.30
2019-05-01T01:31:52.938Z,100616.34
2019-05-01T01:34:24.552Z,100610.49
2019-05-01T01:36:55.913Z,100618.06
2019-05-01T01:39:28.273Z,100617.98
2019-05-01T01:41:59.679Z,100618.52
2019-05-01T01:44:32.309Z,100617.06
2019-05-01T01:47:03.793Z,100612.75
2019-05-01T01:49:35.693Z,100608.48
2019-05-01T01:52:07.508Z,100605.09
2019-05-01T01:54:38.796Z,100600.47
2019-05-01T01:57:10.537Z,100598.28
2019-05-01T01:59:42.507Z,100600.91
2019-05-01T02:02:15.447Z,100602.44
2019-05-01T02:04:48.467Z,100602.50
2019-05-01T02:07:20.691Z,100605.66
2019-05-01T02:09:52.099Z,100614.61
2019-05-01T02:12:23.881Z,100611.57
2019-05-01T02:14:55.093Z,100610.91
2019-05-01T02:17:27.724Z,100611.73
2019-05-01T02:19:59.597Z,100602.16
2019-05-01T02:22:30.879Z,100604.84
2019-05-01T02:25:02.925Z,100593.05
2019-05-01T02:27:36.275Z,100590.55
2019-05-01T02:30:09.794Z,100591.15
2019-05-01T02:32:41.407Z,100579.05
2019-05-01T02:35:13.330Z,100579.77
2019-05-01T02:37:46.472Z,100579.04
2019-05-01T02:40:21.021Z,100585.56
2019-05-01T02:42:53.892Z,100585.95
2019-05-01T02:45:26.817Z,100573.56
2019-05-01T02:48:00.329Z,100577.52
2019-05-01T02:50:34.450Z,100581.58
2019-05-01T02:53:06.540Z,100572.22
2019-05-01T02:55:40.392Z,100575.43
2019-05-01T02:58:13.875Z,100570.28
2019-05-01T03:00:45.679Z,100575.55
2019-05-01T03:03:17.381Z,100572.27
2019-05-01T03:05:49.187Z,100573.26
2019-05-01T03:08:20.810Z,100578.59
2019-05-01T03:10:52.895Z,100574.05
2019-05-01T03:13:24.276Z,100582.27
2019-05-01T03:15:56.956Z,100576.14
2019-05-01T03:18:29.985Z,100579.44
2019-05-01T03:21:03.001Z,100582.43
2019-05-01T03:23:39.142Z,100573.77
2019-05-01T03:26:10.334Z,100564.98
2019-05-01T03:28:42.189Z,100567.52
2019-05-01T03:31:15.085Z,100570.95
2019-05-01T03:33:46.997Z,100569.41
2019-05-01T03:36:17.586Z,100582.22
2019-05-01T03:38:48.987Z,100584.07
2019-05-01T03:41:22.515Z,100573.59
2019-05-01T03:43:54.153Z,100566.60
2019-05-01T03:46:26.012Z,100570.30
2019-05-01T03:48:57.636Z,100573.86
2019-05-01T03:51:29.453Z,100570.30
2019-05-01T03:54:02.626Z,100564.97
2019-05-01T03:56:33.971Z,100562.34
2019-05-01T03:59:05.913Z,100559.31
2019-05-01T04:01:39.598Z,100562.57
2019-05-01T04:04:13.002Z,100562.57
2019-05-01T04:06:45.013Z,100557.27
2019-05-01T04:09:17.422Z,100554.92
2019-05-01T04:11:49.548Z,100551.70
2019-05-01T04:14:22.987Z,100552.81
2019-05-01T04:16:56.624Z,100570.40
2019-05-01T04:19:28.318Z,100576.02
2019-05-01T04:22:01.321Z,100581.59
2019-05-01T04:24:33.320Z,100573.58
2019-05-01T04:27:06.386Z,100577.58
2019-05-01T04:29:39.698Z,100576.07
2019-05-01T04:32:12.755Z,100576.35
2019-05-01T04:34:43.747Z,100578.08
2019-05-01T04:37:16.971Z,100577.67
2019-05-01T04:39:49.358Z,100568.53
2019-05-01T04:42:20.840Z,100574.06
2019-05-01T04:44:52.569Z,100568.41
2019-05-01T04:47:24.967Z,100571.69
2019-05-01T04:49:56.230Z,100568.69
2019-05-01T04:52:28.290Z,100568.55
2019-05-01T04:54:59.940Z,100576.57
2019-05-01T04:57:31.174Z,100570.80
2019-05-01T05:00:04.043Z,100568.61
2019-05-01T05:02:38.452Z,100568.13
2019-05-01T05:05:11.544Z,100570.03
2019-05-01T05:07:43.707Z,100580.66
2019-05-01T05:10:15.842Z,100580.45
2019-05-01T05:12:49.515Z,100582.22
2019-05-01T05:15:22.903Z,100583.27
2019-05-01T05:17:53.953Z,100589.21
2019-05-01T05:20:25.971Z,100580.59
2019-05-01T05:22:58.389Z,100578.59
2019-05-01T05:25:29.900Z,100576.14
2019-05-01T05:28:01.858Z,100575.33
2019-05-01T05:30:35.212Z,100567.13
2019-05-01T05:33:18.064Z,100573.05
2019-05-01T05:35:43.812Z,100570.67
2019-05-01T05:38:18.507Z,100560.13
2019-05-01T05:40:52.372Z,100556.13
2019-05-01T05:43:24.914Z,100555.62
2019-05-01T05:45:57.114Z,100561.56
2019-05-01T05:48:28.847Z,100556.63
2019-05-01T05:51:02.457Z,100554.17
2019-05-01T05:53:37.781Z,100551.99
2019-05-01T05:56:13.732Z,100548.64
2019-05-01T05:58:47.933Z,100551.71
2019-05-01T06:01:22.012Z,100542.93
2019-05-01T06:03:55.858Z,100541.81
2019-05-01T06:06:31.033Z,100533.09
2019-05-01T06:09:08.903Z,100532.95
2019-05-01T06:11:43.323Z,100530.84
2019-05-01T06:14:15.727Z,100528.75
2019-05-01T06:16:52.150Z,100524.84
2019-05-01T06:19:24.556Z,100526.42
2019-05-01T06:21:57.944Z,100535.07
2019-05-01T06:24:35.866Z,100528.00
2019-05-01T06:27:08.903Z,100533.41
2019-05-01T06:29:39.623Z,100533.08
2019-05-01T06:32:11.069Z,100529.64
2019-05-01T06:34:43.385Z,100531.96
2019-05-01T06:37:14.831Z,100527.12
2019-05-01T06:39:47.843Z,100532.23
2019-05-01T06:42:21.636Z,100525.31
2019-05-01T06:44:52.972Z,100532.57
2019-05-01T06:47:27.468Z,100529.50
2019-05-01T06:50:06.047Z,100535.81
2019-05-01T06:52:38.493Z,100523.39
2019-05-01T06:55:11.594Z,100519.31
2019-05-01T06:57:45.529Z,100525.26
2019-05-01T07:00:18.052Z,100516.97
2019-05-01T07:02:50.938Z,100514.67
2019-05-01T07:05:24.096Z,100510.88
2019-05-01T07:07:56.659Z,100514.25
2019-05-01T07:10:39.098Z,100509.45
2019-05-01T07:13:05.411Z,100507.67
2019-05-01T07:15:37.615Z,100504.14
2019-05-01T07:18:11.498Z,100504.97
2019-05-01T07:20:47.215Z,100496.77
2019-05-01T07:23:17.343Z,100500.19
2019-05-01T07:25:50.334Z,100506.56
2019-05-01T07:28:22.939Z,100504.17
2019-05-01T07:30:56.738Z,100492.94
2019-05-01T07:33:29.707Z,100490.20
2019-05-01T07:36:01.540Z,100495.83
2019-05-01T07:38:38.308Z,100492.25
2019-05-01T07:41:07.253Z,100497.83
2019-05-01T07:43:40.749Z,100491.80
2019-05-01T07:46:18.339Z,100492.81
2019-05-01T07:48:48.109Z,100488.72
2019-05-01T07:51:21.015Z,100490.91
2019-05-01T07:53:53.477Z,100493.95
2019-05-01T07:56:28.255Z,100494.80
2019-05-01T07:58:58.270Z,100498.68
2019-05-01T08:01:31.314Z,100494.19
2019-05-01T08:04:04.029Z,100496.19
2019-05-01T08:06:35.767Z,100485.67
2019-05-01T08:09:11.263Z,100492.05
2019-05-01T08:11:45.273Z,100486.30
2019-05-01T08:14:18.546Z,100487.85
2019-05-01T08:16:50.901Z,100484.95
2019-05-01T08:19:24.688Z,100484.18
2019-05-01T08:22:01.750Z,100482.59
2019-05-01T08:24:31.979Z,100489.05
2019-05-01T08:27:04.020Z,100487.08
2019-05-01T08:29:41.961Z,100493.12
2019-05-01T08:32:12.481Z,100476.74
2019-05-01T08:34:49.278Z,100485.06
2019-05-01T08:37:22.400Z,100477.70
2019-05-01T08:39:53.073Z,100475.44
2019-05-01T08:42:25.135Z,100472.44
2019-05-01T08:44:59.838Z,100474.52
2019-05-01T08:47:33.347Z,100474.41
2019-05-01T08:50:11.896Z,100466.98
2019-05-01T08:52:47.369Z,100469.84
2019-05-01T08:55:15.859Z,100461.50
2019-05-01T08:57:48.077Z,100457.48
2019-05-01T09:00:19.741Z,100450.92
2019-05-01T09:02:51.001Z,100462.13
2019-05-01T09:05:29.139Z,100449.55
2019-05-01T09:07:57.750Z,100450.68
2019-05-01T09:10:30.758Z,100455.51
2019-05-01T09:13:02.599Z,100446.82
2019-05-01T09:15:34.321Z,100442.45
2019-05-01T09:18:05.727Z,100439.87
2019-05-01T09:20:37.781Z,100439.22
2019-05-01T09:23:09.511Z,100433.79
2019-05-01T09:25:43.818Z,100423.83
2019-05-01T09:28:16.907Z,100432.38
2019-05-01T09:30:50.545Z,100426.61
2019-05-01T09:33:26.136Z,100427.27
2019-05-01T09:36:34.772Z,100421.23
2019-05-01T09:39:23.115Z,100415.81
2019-05-01T09:41:55.918Z,100416.97
2019-05-01T09:44:26.705Z,100417.76
2019-05-01T09:46:57.084Z,100404.40
2019-05-01T09:49:29.177Z,100411.03
2019-05-01T09:52:02.748Z,100407.75
2019-05-01T09:54:35.157Z,100411.95
2019-05-01T09:57:05.797Z,100408.34
2019-05-01T09:59:36.103Z,100401.05
2019-05-01T10:02:07.841Z,100405.77
2019-05-01T10:04:40.541Z,100402.09
2019-05-01T10:07:11.415Z,100398.38
2019-05-01T10:09:42.501Z,100393.73
2019-05-01T10:12:13.776Z,100388.47
2019-05-01T10:14:45.427Z,100386.42
2019-05-01T10:17:18.862Z,100374.73
2019-05-01T10:19:50.220Z,100369.38
2019-05-01T10:22:21.186Z,100366.44
2019-05-01T10:24:52.088Z,100363.11
2019-05-01T10:27:24.125Z,100354.92
2019-05-01T10:29:57.058Z,100345.00
2019-05-01T10:32:29.190Z,100354.41
2019-05-01T10:35:01.301Z,100349.97
2019-05-01T10:37:33.742Z,100348.21
2019-05-01T10:40:05.401Z,100354.00
2019-05-01T10:42:36.976Z,100359.48
2019-05-01T10:45:07.609Z,100349.33
2019-05-01T10:47:38.751Z,100338.34
2019-05-01T10:50:09.460Z,100352.44
2019-05-01T10:52:40.233Z,100347.75
2019-05-01T10:55:10.972Z,100338.57
2019-05-01T10:57:42.188Z,100329.38
2019-05-01T11:00:14.621Z,100326.27
2019-05-01T11:02:45.733Z,100334.96
2019-05-01T11:05:16.065Z,100337.03
2019-05-01T11:07:46.159Z,100331.73
2019-05-01T11:10:16.295Z,100335.52
2019-05-01T11:12:47.305Z,100331.49
2019-05-01T11:15:19.491Z,100329.41
2019-05-01T11:17:49.912Z,100325.45
2019-05-01T11:20:20.192Z,100329.48
2019-05-01T11:22:50.666Z,100324.97
2019-05-01T11:25:22.138Z,100322.78
2019-05-01T11:27:52.182Z,100314.14
2019-05-01T11:30:23.132Z,100316.27
2019-05-01T11:32:55.032Z,100312.14
2019-05-01T11:35:27.099Z,100309.27
2019-05-01T11:37:59.814Z,100300.55
2019-05-01T11:40:33.308Z,100302.77
2019-05-01T11:43:04.865Z,100299.17
2019-05-01T11:45:35.714Z,100300.95
2019-05-01T11:48:07.464Z,100301.34
2019-05-01T11:50:39.157Z,100297.25
2019-05-01T11:53:09.924Z,100306.81
2019-05-01T11:55:41.392Z,100311.92
2019-05-01T11:58:12.191Z,100309.41
2019-05-01T12:00:44.442Z,100307.63
2019-05-01T12:03:15.678Z,100305.70
2019-05-01T12:05:47.346Z,100304.91
2019-05-01T12:08:18.198Z,100292.28
2019-05-01T12:10:49.696Z,100291.33
2019-05-01T12:13:21.125Z,100294.43
2019-05-01T12:15:53.554Z,100290.06
2019-05-01T12:18:24.720Z,100287.75
2019-05-01T12:20:55.442Z,100284.73
2019-05-01T12:23:26.440Z,100280.87
2019-05-01T12:25:58.363Z,100273.52
2019-05-01T12:28:29.191Z,100272.75
2019-05-01T12:31:00.720Z,100275.30
2019-05-01T12:33:31.702Z,100270.84
2019-05-01T12:36:03.457Z,100274.84
2019-05-01T12:38:34.396Z,100270.45
2019-05-01T12:41:06.947Z,100267.41
2019-05-01T12:43:38.106Z,100263.45
2019-05-01T12:46:11.670Z,100258.67
2019-05-01T12:48:43.872Z,100263.98
2019-05-01T12:51:16.111Z,100256.06
2019-05-01T12:53:49.314Z,100247.83
2019-05-01T12:56:21.784Z,100248.38
2019-05-01T12:58:55.873Z,100246.12
2019-05-01T13:01:26.552Z,100242.27
2019-05-01T13:03:58.071Z,100229.52
2019-05-01T13:06:29.695Z,100231.28
2019-05-01T13:09:01.005Z,100233.47
2019-05-01T13:11:34.065Z,100222.91
2019-05-01T13:14:05.733Z,100212.32
2019-05-01T13:16:37.812Z,100223.70
2019-05-01T13:19:08.953Z,100217.97
2019-05-01T13:21:41.193Z,100203.44
2019-05-01T13:24:13.751Z,100208.68
2019-05-01T13:26:45.674Z,100201.25
2019-05-01T13:29:18.641Z,100197.70
2019-05-01T13:31:51.792Z,100191.52
2019-05-01T13:34:23.528Z,100187.58
2019-05-01T13:37:02.890Z,100183.14
2019-05-01T13:39:29.048Z,100180.09
2019-05-01T13:42:00.638Z,100176.13
2019-05-01T13:44:33.006Z,100175.63
2019-05-01T13:47:04.760Z,100168.55
2019-05-01T13:49:36.151Z,100175.14
2019-05-01T13:52:08.484Z,100174.27
2019-05-01T13:54:44.158Z,100164.57
2019-05-01T13:57:15.620Z,100161.41
2019-05-01T13:59:47.165Z,100167.50
2019-05-01T14:02:19.535Z,100169.13
2019-05-01T14:04:51.112Z,100180.66
2019-05-01T14:07:24.633Z,100183.30
2019-05-01T14:09:56.037Z,100176.77
2019-05-01T14:12:32.836Z,100170.95
2019-05-01T14:15:05.429Z,100169.16
2019-05-01T14:17:38.877Z,100167.80
2019-05-01T14:20:12.379Z,100160.90
2019-05-01T14:22:45.162Z,100162.40
2019-05-01T14:25:18.627Z,100165.47
2019-05-01T14:27:50.629Z,100154.56
2019-05-01T14:30:22.469Z,100152.06
2019-05-01T14:32:53.717Z,100154.48
2019-05-01T14:35:25.425Z,100148.95
2019-05-01T14:37:57.430Z,100145.55
2019-05-01T14:40:29.249Z,100148.71
2019-05-01T14:43:00.758Z,100145.70
2019-05-01T14:45:32.710Z,100142.21
2019-05-01T14:48:04.483Z,100130.88
2019-05-01T14:50:36.516Z,100136.69
2019-05-01T14:53:08.804Z,100138.80
2019-05-01T14:55:41.193Z,100130.07
2019-05-01T14:58:12.850Z,100130.53
2019-05-01T15:00:46.091Z,100130.53
2019-05-01T15:03:19.421Z,100132.65
2019-05-01T15:05:52.929Z,100135.22
2019-05-01T15:08:25.920Z,100130.80
2019-05-01T15:10:58.900Z,100125.13
2019-05-01T15:13:32.821Z,100128.59
2019-05-01T15:16:07.810Z,100128.55
2019-05-01T15:18:41.489Z,100117.11
2019-05-01T15:21:14.257Z,100123.25
2019-05-01T15:23:53.378Z,100121.89
2019-05-01T15:26:20.511Z,100118.33
2019-05-01T15:28:52.262Z,100117.89
2019-05-01T15:31:23.555Z,100104.33
2019-05-01T15:33:55.142Z,100105.66
2019-05-01T15:36:26.709Z,100110.03
2019-05-01T15:38:58.791Z,100103.93
2019-05-01T15:41:31.608Z,100102.60
2019-05-01T15:44:03.859Z,100103.08
2019-05-01T15:46:36.989Z,100099.08
2019-05-01T15:49:09.880Z,100102.16
2019-05-01T15:51:40.799Z,100101.73
2019-05-01T15:54:12.790Z,100095.59
2019-05-01T15:56:43.707Z,100090.36
2019-05-01T15:59:14.970Z,100093.44
2019-05-01T16:01:45.798Z,100090.31
2019-05-01T16:04:17.251Z,100082.38
2019-05-01T16:06:48.392Z,100074.02
2019-05-01T16:09:20.071Z,100084.52
2019-05-01T16:11:52.633Z,100074.43
2019-05-01T16:14:24.741Z,100081.53
2019-05-01T16:16:57.166Z,100084.63
2019-05-01T16:19:29.085Z,100089.84
2019-05-01T16:22:00.917Z,100084.06
2019-05-01T16:24:32.361Z,100086.22
2019-05-01T16:27:04.163Z,100082.72
2019-05-01T16:29:35.881Z,100086.72
2019-05-01T16:32:07.337Z,100075.27
2019-05-01T16:34:44.796Z,100072.68
2019-05-01T16:37:20.877Z,100078.05
2019-05-01T16:43:10.865Z,100073.77
2019-05-01T16:45:42.223Z,100061.91
2019-05-01T16:48:18.049Z,100063.73
2019-05-01T16:50:49.721Z,100058.02
2019-05-01T16:53:30.969Z,100060.63
2019-05-01T16:56:20.793Z,100061.94
2019-05-01T16:58:56.145Z,100057.85
2019-05-01T17:01:28.857Z,100056.94
2019-05-01T17:04:04.320Z,100048.55
2019-05-01T17:06:37.616Z,100049.00
2019-05-01T17:09:12.500Z,100049.45
2019-05-01T17:11:45.216Z,100050.66
2019-05-01T17:14:18.453Z,100054.59
2019-05-01T17:16:50.057Z,100058.05
2019-05-01T17:19:21.495Z,100061.05
2019-05-01T17:21:52.780Z,100056.59
2019-05-01T17:24:23.938Z,100060.91
2019-05-01T17:26:55.102Z,100063.09
2019-05-01T17:29:26.382Z,100059.98
2019-05-01T17:31:57.909Z,100053.39
2019-05-01T17:34:30.689Z,100060.44
2019-05-01T17:37:02.725Z,100063.52
2019-05-01T17:39:36.644Z,100056.05
2019-05-01T17:42:13.664Z,100057.26
2019-05-01T17:44:44.687Z,100055.06
2019-05-01T17:47:17.867Z,100054.56
2019-05-01T17:49:49.282Z,100059.87
2019-05-01T17:52:24.800Z,100062.50
2019-05-01T17:54:57.924Z,100060.74
2019-05-01T17:57:29.964Z,100055.39
2019-05-01T18:00:09.562Z,100061.48
2019-05-01T18:02:42.682Z,100067.16
2019-05-01T18:05:17.875Z,100066.69
2019-05-01T18:07:49.525Z,100069.30
2019-05-01T18:10:21.004Z,100070.55
2019-05-01T18:12:53.444Z,100082.77
2019-05-01T18:15:24.963Z,100073.09
2019-05-01T18:17:56.643Z,100073.09
2019-05-01T18:20:29.724Z,100075.69
2019-05-01T18:23:03.764Z,100074.77
2019-05-01T18:25:38.362Z,100073.42
2019-05-01T18:28:09.865Z,100076.46
2019-05-01T18:30:46.244Z,100081.62
2019-05-01T18:33:22.010Z,100076.75
2019-05-01T18:35:59.416Z,100073.13
2019-05-01T18:38:33.487Z,100078.32
2019-05-01T18:41:24.800Z,100082.23
2019-05-01T18:43:58.564Z,100075.25
2019-05-01T18:46:34.646Z,100082.66
2019-05-01T18:49:16.614Z,100082.59
2019-05-01T18:51:48.028Z,100082.55
2019-05-01T18:54:34.932Z,100086.06
2019-05-01T18:57:39.845Z,100082.03
2019-05-01T19:00:20.388Z,100082.38
2019-05-01T19:02:59.555Z,100084.94
2019-05-01T19:05:33.180Z,100087.99
2019-05-01T19:08:09.141Z,100083.66
2019-05-01T19:11:12.592Z,100081.47
2019-05-01T19:13:42.164Z,100085.45
2019-05-01T19:16:40.123Z,100084.53
2019-05-01T19:19:12.709Z,100091.16
2019-05-01T19:21:48.397Z,100087.55
2019-05-01T19:24:20.021Z,100091.51
2019-05-01T19:26:51.461Z,100086.59
2019-05-01T19:29:26.567Z,100088.25
2019-05-01T19:32:21.588Z,100089.61
2019-05-01T19:35:18.856Z,100093.52
2019-05-01T19:38:17.181Z,100091.32
2019-05-01T19:41:18.484Z,100093.86
2019-05-01T19:43:59.545Z,100103.41
2019-05-01T19:46:38.099Z,100097.56
2019-05-01T19:49:09.619Z,100098.38
2019-05-01T19:51:41.060Z,100098.23
2019-05-01T19:54:23.133Z,100095.94
2019-05-01T19:56:59.031Z,100100.66
2019-05-01T19:59:35.485Z,100099.40
2019-05-01T20:02:37.926Z,100096.16
2019-05-01T20:05:43.449Z,100100.67
2019-05-01T20:08:22.770Z,100095.70
2019-05-01T20:10:54.979Z,100099.52
2019-05-01T20:13:37.525Z,100106.38
2019-05-01T20:16:42.332Z,100110.10
2019-05-01T20:19:45.473Z,100112.91
2019-05-01T20:22:48.231Z,100103.45
2019-05-01T20:25:37.840Z,100116.00
2019-05-01T20:28:22.486Z,100112.67
2019-05-01T20:30:58.424Z,100107.58
2019-05-01T20:33:45.046Z,100108.83
2019-05-01T20:36:27.037Z,100104.69
2019-05-01T20:39:29.131Z,100110.84
2019-05-01T20:42:29.044Z,100108.44
2019-05-01T20:45:18.165Z,100115.63
2019-05-01T20:48:00.656Z,100112.41
2019-05-01T20:50:39.771Z,100107.27
2019-05-01T20:53:16.104Z,100104.14
2019-05-01T20:55:53.012Z,100111.33
2019-05-01T20:58:30.359Z,100106.02
2019-05-01T21:01:17.928Z,100109.75
2019-05-01T21:03:58.592Z,100111.37
2019-05-01T21:06:43.793Z,100119.67
2019-05-01T21:09:18.327Z,100116.07
2019-05-01T21:12:04.479Z,100114.81
2019-05-01T21:14:28.165Z,100112.52
2019-05-01T22:12:53.549Z,100079.70
2019-05-01T22:15:26.897Z,100076.55
2019-05-01T22:18:00.107Z,100073.75
2019-05-01T22:20:33.274Z,100069.28
2019-05-01T22:23:17.161Z,100073.02
2019-05-01T22:26:01.979Z,100073.28
2019-05-01T22:28:50.143Z,100072.73
2019-05-01T22:31:27.831Z,100067.05
2019-05-01T22:34:00.662Z,100072.64
2019-05-01T22:36:32.185Z,100065.44
2019-05-01T22:39:06.072Z,100065.31
2019-05-01T22:41:39.847Z,100055.14
2019-05-01T22:44:12.834Z,100050.34
2019-05-01T22:46:44.120Z,100054.55
2019-05-01T22:49:15.444Z,100046.95
2019-05-01T22:51:47.051Z,100040.45
2019-05-01T22:54:18.860Z,100036.27
2019-05-01T22:56:50.426Z,100031.47
2019-05-01T22:59:22.974Z,100031.28
2019-05-01T23:01:55.619Z,100028.17
2019-05-01T23:04:27.556Z,100014.56
2019-05-01T23:06:59.236Z,100019.36
2019-05-01T23:09:30.934Z,100013.87
2019-05-01T23:12:02.627Z,100019.39
2019-05-01T23:14:34.359Z,100017.83
2019-05-01T23:17:07.214Z,100021.22
2019-05-01T23:19:39.074Z,100015.94
2019-05-01T23:22:10.676Z,100017.66
2019-05-01T23:24:42.010Z,100016.09
2019-05-01T23:27:13.350Z,100014.53
2019-05-01T23:29:44.766Z,100016.45
2019-05-01T23:32:16.078Z,100013.23
2019-05-01T23:34:47.716Z,100004.70
2019-05-01T23:37:18.940Z,100005.41
2019-05-01T23:39:50.221Z,99998.22
2019-05-01T23:42:21.119Z,99992.80
2019-05-01T23:44:52.254Z,99988.29
2019-05-01T23:47:23.527Z,99991.25
2019-05-01T23:49:55.047Z,99986.70
2019-05-01T23:52:26.516Z,99986.42
2019-05-01T23:54:57.814Z,99986.03
2019-05-01T23:57:29.048Z,99980.71
